createdAt,value
2023-01-28T00:03:42.523Z,-0.77
2023-01-28T00:08:44.590Z,-0.76
2023-01-28T00:13:52.883Z,-0.78
2023-01-28T00:18:54.888Z,-0.83
2023-01-28T00:23:57.359Z,-0.87
2023-01-28T00:28:59.142Z,-0.85
2023-01-28T00:34:01.023Z,-0.84
2023-01-28T00:39:02.981Z,-0.85
2023-01-28T00:44:04.755Z,-0.87
2023-01-28T00:49:06.659Z,-0.90
2023-01-28T00:54:12.835Z,-0.88
2023-01-28T00:59:14.693Z,-0.87
2023-01-28T01:04:26.399Z,-0.87
2023-01-28T01:09:28.345Z,-0.89
2023-01-28T01:14:31.887Z,-0.97
2023-01-28T01:19:33.629Z,-0.97
2023-01-28T01:24:35.482Z,-0.96
2023-01-28T01:29:37.213Z,-0.96
2023-01-28T01:34:38.895Z,-1.01
2023-01-28T01:39:40.651Z,-1.04
2023-01-28T01:45:01.806Z,-1.03
2023-01-28T01:50:23.103Z,-1.01
2023-01-28T01:55:29.716Z,-0.98
2023-01-28T02:00:32.466Z,-0.98
2023-01-28T02:05:34.419Z,-1.02
2023-01-28T02:10:36.525Z,-1.05
2023-01-28T02:15:38.818Z,-1.03
2023-01-28T02:21:07.328Z,-1.00
2023-01-28T02:26:31.785Z,-1.03
2023-01-28T02:31:44.883Z,-1.10
2023-01-28T02:37:21.186Z,-1.12
2023-01-28T02:42:32.306Z,-1.12
2023-01-28T02:48:12.552Z,-1.13
2023-01-28T02:53:41.029Z,-1.18
2023-01-28T02:58:55.977Z,-1.19
2023-01-28T03:04:08.245Z,-1.17
2023-01-28T03:09:26.903Z,-1.19
2023-01-28T03:14:51.181Z,-1.24
2023-01-28T03:20:13.516Z,-1.29
2023-01-28T03:25:35.479Z,-1.30
2023-01-28T03:31:15.869Z,-1.31
2023-01-28T03:36:42.938Z,-1.34
2023-01-28T03:42:00.439Z,-1.35
2023-01-28T03:47:02.829Z,-1.38
2023-01-28T03:52:04.936Z,-1.33
2023-01-28T03:57:06.923Z,-1.29
2023-01-28T04:02:11.118Z,-1.27
2023-01-28T04:07:16.940Z,-1.29
2023-01-28T04:12:51.318Z,-1.33
2023-01-28T04:17:54.234Z,-1.36
2023-01-28T04:23:01.140Z,-1.34
2023-01-28T04:28:04.007Z,-1.31
2023-01-28T04:33:06.342Z,-1.28
2023-01-28T04:38:37.908Z,-1.28
2023-01-28T04:43:57.411Z,-1.31
2023-01-28T04:49:19.457Z,-1.34
2023-01-28T04:54:46.725Z,-1.32
2023-01-28T04:59:48.481Z,-1.31
2023-01-28T05:04:51.124Z,-1.33
2023-01-28T05:10:19.795Z,-1.37
2023-01-28T05:15:22.387Z,-1.41
2023-01-28T05:20:24.907Z,-1.40
2023-01-28T05:25:30.739Z,-1.39
2023-01-28T05:30:32.649Z,-1.38
2023-01-28T05:35:34.813Z,-1.42
2023-01-28T05:40:36.743Z,-1.49
2023-01-28T05:45:39.715Z,-1.49
2023-01-28T05:50:47.960Z,-1.46
2023-01-28T05:55:54.550Z,-1.48
2023-01-28T06:00:56.776Z,-1.51
2023-01-28T06:06:02.127Z,-1.55
2023-01-28T06:11:04.741Z,-1.54
2023-01-28T06:16:08.765Z,-1.68
2023-01-28T06:21:19.489Z,-1.48
2023-01-28T06:26:21.474Z,-1.50
2023-01-28T06:31:23.267Z,-1.53
2023-01-28T06:36:25.143Z,-1.54
2023-01-28T06:41:27.198Z,-1.51
2023-01-28T06:46:29.121Z,-1.49
2023-01-28T06:51:31.240Z,-1.48
2023-01-28T06:56:33.546Z,-1.50
2023-01-28T07:01:35.472Z,-1.50
2023-01-28T07:06:37.551Z,-1.47
2023-01-28T07:11:39.419Z,-1.41
2023-01-28T07:16:41.189Z,-1.36
2023-01-28T07:21:42.881Z,-1.32
2023-01-28T07:26:44.730Z,-1.33
2023-01-28T07:31:46.836Z,-1.26
2023-01-28T07:36:48.740Z,-1.14
2023-01-28T07:41:50.759Z,-1.03
2023-01-28T07:47:12.797Z,-0.95
2023-01-28T07:52:15.352Z,-0.88
2023-01-28T07:57:23.260Z,-0.78
2023-01-28T08:02:25.208Z,-0.77
2023-01-28T08:07:27.766Z,-0.77
2023-01-28T08:12:29.663Z,-0.69
2023-01-28T08:17:31.901Z,-0.64
2023-01-28T08:22:33.608Z,-0.60
2023-01-28T08:27:35.346Z,-0.64
2023-01-28T08:32:37.753Z,-0.66
2023-01-28T08:37:39.457Z,-0.64
2023-01-28T08:42:47.161Z,-0.54
2023-01-28T08:47:54.316Z,-0.39
2023-01-28T08:53:09.915Z,-0.31
2023-01-28T08:58:14.320Z,-0.33
2023-01-28T09:03:16.925Z,-0.31
2023-01-28T09:08:18.773Z,-0.25
2023-01-28T09:13:20.551Z,-0.09
2023-01-28T09:18:22.274Z,0.11
2023-01-28T09:23:24.045Z,0.32
2023-01-28T09:28:25.760Z,0.47
2023-01-28T09:33:27.413Z,0.48
2023-01-28T09:38:32.400Z,0.55
2023-01-28T09:43:43.171Z,0.65
2023-01-28T09:48:49.467Z,0.76
2023-01-28T09:53:55.504Z,0.79
2023-01-28T09:59:02.141Z,0.85
2023-01-28T10:04:33.820Z,0.96
2023-01-28T10:09:56.469Z,1.08
2023-01-28T10:15:22.179Z,1.12
2023-01-28T10:20:31.007Z,1.17
2023-01-28T10:25:34.800Z,1.20
2023-01-28T10:30:40.511Z,1.11
2023-01-28T10:35:43.735Z,1.04
2023-01-28T10:40:49.220Z,1.01
2023-01-28T10:46:01.900Z,0.95
2023-01-28T10:51:07.218Z,1.04
2023-01-28T10:56:15.918Z,1.10
2023-01-28T11:01:17.699Z,1.11
2023-01-28T11:06:27.531Z,1.19
2023-01-28T11:11:29.953Z,1.19
2023-01-28T11:16:31.920Z,1.28
2023-01-28T11:21:35.496Z,1.40
2023-01-28T11:26:39.918Z,1.50
2023-01-28T11:31:44.500Z,1.54
2023-01-28T11:36:52.472Z,1.55
2023-01-28T11:41:55.519Z,1.61
2023-01-28T11:47:05.438Z,1.59
2023-01-28T11:53:04.894Z,1.59
2023-01-28T11:58:12.424Z,1.62
2023-01-28T12:04:02.912Z,1.65
2023-01-28T12:09:19.368Z,1.68
2023-01-28T12:14:42.281Z,1.65
2023-01-28T12:20:05.897Z,1.59
2023-01-28T12:25:13.430Z,1.66
2023-01-28T12:30:24.237Z,1.67
2023-01-28T12:35:56.391Z,1.63
2023-01-28T12:41:09.295Z,1.67
2023-01-28T12:46:29.842Z,1.63
2023-01-28T12:51:39.532Z,1.64
2023-01-28T12:56:46.319Z,1.54
2023-01-28T13:02:11.182Z,1.42
2023-01-28T13:07:18.220Z,1.24
2023-01-28T13:12:20.999Z,1.13
2023-01-28T13:17:29.565Z,0.97
2023-01-28T13:22:40.049Z,0.89
2023-01-28T13:27:41.826Z,0.91
2023-01-28T13:32:54.883Z,0.93
2023-01-28T13:37:57.444Z,0.88
2023-01-28T13:43:44.416Z,0.83
2023-01-28T13:48:52.145Z,0.78
2023-01-28T13:53:58.768Z,0.74
2023-01-28T13:59:23.781Z,0.67
2023-01-28T14:04:44.238Z,0.64
2023-01-28T14:09:59.882Z,0.62
2023-01-28T14:15:49.395Z,0.60
2023-01-28T14:20:53.262Z,0.54
2023-01-28T14:26:17.661Z,0.48
2023-01-28T14:31:27.994Z,0.38
2023-01-28T14:36:30.395Z,0.38
2023-01-28T14:41:32.375Z,0.40
2023-01-28T14:46:42.559Z,0.39
2023-01-28T14:51:54.344Z,0.31
2023-01-28T14:57:37.612Z,0.20
2023-01-28T15:02:44.930Z,0.13
2023-01-28T15:07:59.059Z,0.07
2023-01-28T15:13:11.282Z,0.04
2023-01-28T15:18:15.510Z,-0.03
2023-01-28T15:23:20.882Z,-0.10
2023-01-28T15:28:31.664Z,-0.11
2023-01-28T15:33:33.390Z,-0.11
2023-01-28T15:38:35.212Z,-0.12
2023-01-28T15:43:38.793Z,-0.14
2023-01-28T15:48:44.313Z,-0.19
2023-01-28T15:53:50.004Z,-0.21
2023-01-28T15:58:51.953Z,-0.29
2023-01-28T16:04:02.839Z,-0.33
2023-01-28T16:09:22.469Z,-0.30
2023-01-28T16:14:30.860Z,-0.28
2023-01-28T16:19:42.155Z,-0.29
2023-01-28T16:24:52.734Z,-0.35
2023-01-28T16:30:01.592Z,-0.38
2023-01-28T16:35:06.819Z,-0.34
2023-01-28T16:40:09.961Z,-0.33
2023-01-28T16:45:18.917Z,-0.42
2023-01-28T16:50:22.157Z,-0.51
2023-01-28T16:55:24.612Z,-0.53
2023-01-28T17:00:27.573Z,-0.52
2023-01-28T17:05:29.444Z,-0.56
2023-01-28T17:10:31.504Z,-0.57
2023-01-28T17:15:35.402Z,-0.55
2023-01-28T17:20:40.379Z,-0.52
2023-01-28T17:25:43.386Z,-0.54
2023-01-28T17:30:45.169Z,-0.53
2023-01-28T17:35:48.235Z,-0.53
2023-01-28T17:40:50.125Z,-0.52
2023-01-28T17:45:52.049Z,-0.48
2023-01-28T17:50:57.411Z,-0.44
2023-01-28T17:55:59.154Z,-0.41
2023-01-28T18:01:08.538Z,-0.37
2023-01-28T18:06:10.486Z,-0.35
2023-01-28T18:11:14.871Z,-0.41
2023-01-28T18:16:20.783Z,-0.46
2023-01-28T18:21:51.295Z,-0.47
2023-01-28T18:26:55.716Z,-0.49
2023-01-28T18:31:58.632Z,-0.48
2023-01-28T18:37:01.250Z,-0.55
2023-01-28T18:42:02.935Z,-0.69
2023-01-28T18:47:04.689Z,-0.75
2023-01-28T18:52:06.518Z,-0.77
2023-01-28T18:57:08.197Z,-0.86
2023-01-28T19:02:13.996Z,-0.91
2023-01-28T19:07:15.847Z,-0.93
2023-01-28T19:12:17.717Z,-0.94
2023-01-28T19:17:19.775Z,-0.99
2023-01-28T19:22:21.683Z,-0.95
2023-01-28T19:27:23.765Z,-0.90
2023-01-28T19:32:25.849Z,-0.92
2023-01-28T19:37:27.729Z,-0.94
2023-01-28T19:42:30.123Z,-0.94
2023-01-28T19:47:32.798Z,-0.95
2023-01-28T19:52:34.434Z,-0.98
2023-01-28T19:57:36.137Z,-1.01
2023-01-28T20:02:37.899Z,-1.04
2023-01-28T20:07:39.629Z,-1.04
2023-01-28T20:12:41.290Z,-1.04
2023-01-28T20:17:43.172Z,-1.03
2023-01-28T20:22:45.268Z,-1.01
2023-01-28T20:27:47.651Z,-0.97
2023-01-28T20:32:49.438Z,-0.98
2023-01-28T20:37:51.412Z,-1.00
2023-01-28T20:42:53.391Z,-1.06
2023-01-28T20:47:55.116Z,-1.07
2023-01-28T20:52:57.222Z,-1.09
2023-01-28T20:58:09.171Z,-1.11
2023-01-28T21:03:10.943Z,-1.10
2023-01-28T21:08:14.601Z,-1.13
2023-01-28T21:13:16.358Z,-1.12
2023-01-28T21:18:18.252Z,-1.10
2023-01-28T21:23:20.215Z,-1.08
2023-01-28T21:28:21.960Z,-1.08
2023-01-28T21:33:23.862Z,-1.07
2023-01-28T21:38:25.841Z,-1.09
2023-01-28T21:43:27.622Z,-1.13
2023-01-28T21:48:30.628Z,-1.14
2023-01-28T21:53:32.318Z,-1.13
2023-01-28T21:58:56.823Z,-1.18
2023-01-28T22:03:58.898Z,-1.26
2023-01-28T22:09:01.100Z,-1.28
2023-01-28T22:14:09.418Z,-1.37
2023-01-28T22:19:11.877Z,-1.49
2023-01-28T22:24:19.478Z,-1.63
2023-01-28T22:29:22.974Z,-1.76
2023-01-28T22:34:24.792Z,-1.77
2023-01-28T22:39:26.522Z,-1.84
2023-01-28T22:44:28.279Z,-1.89
2023-01-28T22:49:29.956Z,-1.95
2023-01-28T22:54:31.972Z,-1.96
2023-01-28T22:59:33.806Z,-1.98
2023-01-28T23:04:35.558Z,-2.06
2023-01-28T23:09:37.280Z,-2.11
2023-01-28T23:14:57.864Z,-2.14
2023-01-28T23:20:18.533Z,-2.19
2023-01-28T23:25:22.742Z,-2.15
2023-01-28T23:30:25.393Z,-2.12
2023-01-28T23:35:27.499Z,-2.17
2023-01-28T23:40:29.377Z,-2.17
2023-01-28T23:45:31.133Z,-2.20
2023-01-28T23:50:33.077Z,-2.30
2023-01-28T23:55:34.793Z,-2.32
